West Salem, Ohio
Current Conditions -  °F | °C
As of 12:56 PM on Tuesday 21 Oct 2014 (Local Time) from KBJJ Reporting Station
Overcast Overcast  
Wind Chill: 10°   Ceiling: 1400
Heat Index: 10°   Visibility: 8mi
Dew Point:   Wind: 17mph
Humidity: 83%   Direction: 350°N
Pressure: 29.96"   Gusts: 23mph
Location:  40.97°N, 82.11°W
Report Text: KBJJ 211656Z AUTO 35015G20KT 8SM SCT010 OVC014 10/07 A2996 RMK AO2 RAE39 SLP147 P0001 T01000072 TSNO
Loading
Personal Weather Stations






























Interactive Weather Map
Tropical Storm Tracking
New forecast layout! Learn more

10-Day Weather Forecast

Advertisements
Track Severe Weather on mobile